Time;durP1;ratioP1;P1;durP2;ratioP2;P2;SDS_P1;SDS_P2;PMS_P1;PMS_P2;Temp;Humidity;BMP_temperature;BMP_pressure;BME280_temperature;BME280_humidity;BME280_pressure;Samples;Min_cycle;Max_cycle;Signal;HPM_P1;HPM_P2
2022/01/21 00:02:04;;;;;;;4.90;1.70;;;2.00;99.90;;;2.73;100.00;99541.28;4926341;29;20474;-91
2022/01/21 00:04:36;;;;;;;19.50;2.57;;;2.00;99.90;;;2.71;100.00;99543.13;4933286;29;20469;-93
2022/01/21 00:07:05;;;;;;;10.73;2.30;;;2.00;99.90;;;2.72;100.00;99539.63;4919999;29;20506;-91
2022/01/21 00:09:37;;;;;;;5.73;2.33;;;2.00;99.90;;;2.67;100.00;99539.13;4921089;29;20467;-91
2022/01/21 00:12:07;;;;;;;6.77;2.87;;;1.90;99.90;;;2.67;100.00;99546.03;4921476;29;20503;-92
2022/01/21 00:14:37;;;;;;;15.13;2.50;;;1.90;99.90;;;2.69;100.00;99549.31;4927349;29;20925;-91
2022/01/21 00:17:09;;;;;;;10.17;2.10;;;2.00;99.90;;;2.68;100.00;99547.66;4907386;29;20474;-91
2022/01/21 00:19:43;;;;;;;6.87;2.77;;;2.00;99.90;;;2.62;100.00;99548.91;4923014;29;20844;-92
2022/01/21 00:30:35;;;;;;;6.83;2.40;;;1.70;99.90;;;2.56;100.00;99551.06;4923826;29;20510;-90
2022/01/21 00:33:05;;;;;;;6.93;1.80;;;1.70;99.90;;;2.54;100.00;99545.97;4923343;29;20546;-92
2022/01/21 00:35:36;;;;;;;8.30;2.40;;;1.70;99.90;;;2.58;100.00;99541.44;4923106;29;20506;-92
2022/01/21 00:38:06;;;;;;;6.10;2.30;;;1.80;99.90;;;2.61;100.00;99541.25;4923021;29;20539;-91
2022/01/21 00:40:36;;;;;;;4.93;2.30;;;1.80;99.90;;;2.61;100.00;99536.06;4922744;29;20496;-91
2022/01/21 00:43:30;;;;;;;2.90;1.37;;;1.90;99.90;;;2.57;100.00;99540.63;4914053;29;20474;-92
2022/01/21 00:46:01;;;;;;;4.97;1.80;;;2.00;99.90;;;2.58;100.00;99536.28;4909319;29;20498;-91
2022/01/21 00:48:33;;;;;;;13.73;2.20;;;2.00;99.90;;;2.60;100.00;99544.78;4923045;29;20468;-91
2022/01/21 00:51:03;;;;;;;5.90;2.10;;;1.90;99.90;;;2.57;100.00;99539.81;4919645;29;20469;-91
2022/01/21 00:53:34;;;;;;;3.93;1.50;;;1.90;99.90;;;2.56;100.00;99538.97;4903845;29;20485;-92
2022/01/21 00:56:04;;;;;;;9.47;1.80;;;1.80;99.90;;;2.58;100.00;99541.44;4922821;29;20462;-91
2022/01/21 00:58:35;;;;;;;8.17;1.57;;;1.90;99.90;;;2.58;100.00;99541.44;4923281;29;20548;-92
2022/01/21 01:01:06;;;;;;;5.60;1.87;;;2.00;99.90;;;2.54;100.00;99546.81;4922939;29;21012;-92
2022/01/21 01:03:38;;;;;;;6.27;2.10;;;1.90;99.90;;;2.57;100.00;99553.53;4925974;29;20463;-91
2022/01/21 01:06:08;;;;;;;9.87;2.00;;;1.90;99.90;;;2.56;100.00;99553.63;4921451;29;20543;-91
2022/01/21 01:08:39;;;;;;;10.10;2.30;;;1.80;99.90;;;2.54;100.00;99559.72;4922327;29;20561;-92
2022/01/21 01:11:21;;;;;;;5.53;1.70;;;1.80;99.90;;;2.56;100.00;99558.81;4922407;29;20516;-92
2022/01/21 01:22:19;;;;;;;5.63;2.43;;;1.80;99.90;;;2.59;100.00;99568.94;4924063;29;21285;-91
2022/01/21 01:27:41;;;;;;;10.90;1.97;;;1.90;99.90;;;2.58;100.00;99573.25;4898061;29;21006;-93
2022/01/21 01:30:16;;;;;;;10.40;2.47;;;1.90;99.90;;;2.61;100.00;99572.22;4923491;29;21066;-91
2022/01/21 01:32:49;;;;;;;10.23;2.70;;;2.00;99.90;;;2.60;100.00;99573.19;4921304;29;20547;-92
2022/01/21 01:35:22;;;;;;;9.93;2.17;;;1.90;99.90;;;2.64;100.00;99574.63;4920589;29;20516;-91
2022/01/21 01:40:43;;;;;;;6.90;2.07;;;2.10;99.90;;;2.69;100.00;99590.63;4919322;29;20500;-91
2022/01/21 01:51:41;;;;;;;6.20;2.10;;;2.00;99.90;;;2.65;100.00;99594.34;4920740;29;20466;-91
2022/01/21 01:54:16;;;;;;;5.83;1.60;;;2.20;99.90;;;2.65;100.00;99591.75;4924563;29;20671;-91
2022/01/21 01:56:51;;;;;;;10.83;2.10;;;2.10;99.90;;;2.64;100.00;99582.38;4924579;29;20466;-92
2022/01/21 01:59:21;;;;;;;7.67;2.20;;;2.10;99.90;;;2.70;100.00;99576.81;4926125;29;20492;-91
2022/01/21 02:01:55;;;;;;;8.80;2.00;;;2.20;99.90;;;2.72;100.00;99573.19;4923690;29;20506;-92
2022/01/21 02:04:25;;;;;;;11.73;1.73;;;2.20;99.90;;;2.70;100.00;99566.47;4924485;29;20557;-91
2022/01/21 02:06:57;;;;;;;17.37;2.07;;;2.20;99.90;;;2.70;100.00;99561.31;4922256;29;20574;-90
2022/01/21 02:09:27;;;;;;;8.57;1.97;;;2.10;99.90;;;2.68;100.00;99565.72;4926143;29;20546;-92
2022/01/21 02:11:58;;;;;;;8.20;2.13;;;2.10;99.90;;;2.62;100.00;99573.88;4924532;29;20459;-92
2022/01/21 02:14:31;;;;;;;9.53;2.20;;;2.00;99.90;;;2.65;100.00;99563.34;4926044;29;20466;-92
2022/01/21 02:21:26;;;;;;;9.47;1.90;;;2.10;99.90;;;2.66;100.00;99573.59;4922078;29;20481;-91
2022/01/21 02:22:52;;;;;;;12.63;2.37;;;2.00;99.90;;;2.68;100.00;99587.22;4904558;29;20478;-91
2022/01/21 02:25:22;;;;;;;4.13;1.80;;;1.90;99.90;;;2.69;100.00;99577.72;4927100;28;21037;-91
2022/01/21 02:27:56;;;;;;;6.90;1.93;;;2.00;99.90;;;2.68;100.00;99582.06;4928179;29;20545;-91
2022/01/21 02:30:28;;;;;;;7.97;2.80;;;1.90;99.90;;;2.71;100.00;99573.31;4929500;29;20466;-91
2022/01/21 02:33:00;;;;;;;6.40;1.97;;;2.10;99.90;;;2.68;100.00;99570.91;4927801;29;20469;-92
2022/01/21 02:35:30;;;;;;;3.20;1.97;;;2.00;99.90;;;2.69;100.00;99565.66;4928960;29;20474;-91
2022/01/21 02:38:02;;;;;;;4.73;1.80;;;1.90;99.90;;;2.69;100.00;99570.81;4929186;29;20983;-90
2022/01/21 02:40:31;;;;;;;11.10;2.40;;;1.80;99.90;;;2.65;100.00;99568.53;4927695;29;20474;-91
2022/01/21 02:43:02;;;;;;;11.00;1.83;;;1.80;99.90;;;2.62;100.00;99571.31;4928899;29;20557;-91
2022/01/21 02:45:33;;;;;;;8.27;2.07;;;1.80;99.90;;;2.57;100.00;99575.97;4926201;28;20558;-91
2022/01/21 02:48:04;;;;;;;4.73;2.03;;;1.80;99.90;;;2.56;100.00;99574.28;4925305;29;20463;-91
2022/01/21 02:50:34;;;;;;;9.57;2.23;;;1.80;99.90;;;2.58;100.00;99573.25;4926499;29;20962;-91
2022/01/21 02:53:12;;;;;;;9.00;2.57;;;1.80;99.90;;;2.55;100.00;99578.63;4925322;29;21039;-91
2022/01/21 02:55:43;;;;;;;10.93;1.90;;;1.70;99.90;;;2.60;100.00;99588.66;4923391;29;20466;-91
2022/01/21 02:58:13;;;;;;;5.97;2.10;;;1.80;99.90;;;2.58;100.00;99585.34;4925181;28;20831;-91
2022/01/21 03:00:44;;;;;;;6.33;1.90;;;1.80;99.90;;;2.54;100.00;99582.94;4926815;29;20549;-92
2022/01/21 03:03:14;;;;;;;4.43;1.80;;;1.60;99.90;;;2.53;100.00;99578.72;4928874;29;20507;-91
2022/01/21 03:05:44;;;;;;;3.67;1.80;;;1.80;99.90;;;2.54;100.00;99577.78;4912037;29;20964;-91
2022/01/21 03:08:17;;;;;;;6.80;2.37;;;1.70;99.90;;;2.44;100.00;99587.06;4925493;29;20893;-91
2022/01/21 03:10:46;;;;;;;8.90;2.13;;;1.60;99.90;;;2.35;100.00;99573.91;4924552;29;20475;-92
2022/01/21 03:13:17;;;;;;;8.43;1.73;;;1.50;99.90;;;2.37;100.00;99580.63;4927030;29;20492;-91
2022/01/21 03:15:47;;;;;;;6.17;1.93;;;1.60;99.90;;;2.35;100.00;99574.75;4927314;29;20466;-91
2022/01/21 03:18:17;;;;;;;12.33;2.07;;;1.50;99.90;;;2.33;100.00;99580.91;4923814;29;20524;-90
2022/01/21 03:20:47;;;;;;;1.67;1.50;;;1.50;99.90;;;2.32;100.00;99577.53;4922461;29;20475;-91
2022/01/21 03:23:22;;;;;;;8.53;1.60;;;1.50;99.90;;;2.36;100.00;99573.00;4929324;29;20582;-91
2022/01/21 03:25:51;;;;;;;6.13;2.00;;;1.50;99.90;;;2.37;100.00;99584.94;4923527;29;20463;-91
2022/01/21 03:28:23;;;;;;;3.97;1.90;;;1.50;99.90;;;2.34;100.00;99574.84;4922145;29;20496;-90
2022/01/21 03:30:56;;;;;;;6.70;2.33;;;1.60;99.90;;;2.39;100.00;99586.53;4924514;29;20546;-91
2022/01/21 03:33:26;;;;;;;7.00;2.30;;;1.70;99.90;;;2.39;100.00;99594.28;4906697;29;20470;-91
2022/01/21 03:35:57;;;;;;;3.70;1.70;;;1.70;99.90;;;2.38;100.00;99587.44;4904163;29;20878;-91
2022/01/21 03:38:29;;;;;;;2.17;1.80;;;1.60;99.90;;;2.36;100.00;99604.78;4925903;29;20833;-90
2022/01/21 03:40:59;;;;;;;7.63;1.77;;;1.50;99.90;;;2.37;100.00;99585.78;4924992;28;20478;-92
2022/01/21 03:43:29;;;;;;;4.47;1.90;;;1.50;99.90;;;2.33;100.00;99593.81;4924958;29;20565;-90
2022/01/21 03:46:00;;;;;;;13.27;3.10;;;1.60;99.90;;;2.33;100.00;99607.53;4924149;29;20472;-92
2022/01/21 03:48:30;;;;;;;11.07;2.77;;;1.70;99.90;;;2.34;100.00;99611.78;4922681;29;20471;-91
2022/01/21 03:51:03;;;;;;;5.70;2.20;;;1.60;99.90;;;2.33;100.00;99615.28;4929672;29;20470;-93
2022/01/21 03:53:35;;;;;;;4.10;1.57;;;1.70;99.90;;;2.32;100.00;99621.41;4940015;29;20550;-93
2022/01/21 03:56:06;;;;;;;6.10;1.87;;;1.60;99.90;;;2.29;100.00;99629.31;4940374;29;20475;-93
2022/01/21 03:58:37;;;;;;;3.27;1.80;;;1.60;99.90;;;2.30;100.00;99617.22;4940987;29;20463;-92
2022/01/21 04:01:13;;;;;;;7.03;2.00;;;1.50;99.90;;;2.26;100.00;99613.19;4939300;29;20573;-93
2022/01/21 04:03:47;;;;;;;6.60;2.53;;;1.50;99.90;;;2.24;100.00;99626.19;4939962;29;20952;-93
2022/01/21 04:06:18;;;;;;;7.50;2.50;;;1.40;99.90;;;2.26;100.00;99629.50;4939097;29;20478;-93
2022/01/21 04:08:57;;;;;;;10.23;1.77;;;1.50;99.90;;;2.27;100.00;99638.06;4943680;28;21409;-94
2022/01/21 04:11:36;;;;;;;5.07;1.73;;;1.60;99.90;;;2.28;100.00;99635.41;4937568;29;20558;-93
2022/01/21 04:14:08;;;;;;;5.10;2.33;;;1.50;99.90;;;2.27;100.00;99631.16;4923063;29;20464;-93
2022/01/21 04:16:48;;;;;;;9.33;2.20;;;1.50;99.90;;;2.26;100.00;99634.66;4937342;29;20558;-92
2022/01/21 04:19:21;;;;;;;7.67;1.90;;;1.50;99.90;;;2.28;100.00;99632.00;4935959;29;20791;-93
2022/01/21 04:21:57;;;;;;;11.67;2.57;;;1.50;99.90;;;2.26;100.00;99634.66;4934374;29;20504;-93
2022/01/21 04:24:36;;;;;;;16.37;2.40;;;1.60;99.90;;;2.26;100.00;99626.91;4938964;29;20474;-92
2022/01/21 04:27:14;;;;;;;8.57;1.77;;;1.50;99.90;;;2.24;100.00;99631.34;4938540;29;20488;-94
2022/01/21 04:29:50;;;;;;;4.73;1.80;;;1.50;99.90;;;2.20;100.00;99621.31;4937494;29;20467;-93
2022/01/21 04:32:23;;;;;;;7.70;2.90;;;1.40;99.90;;;2.20;100.00;99619.56;4936545;29;20475;-93
2022/01/21 04:34:52;;;;;;;4.03;1.70;;;1.40;99.90;;;2.17;100.00;99618.94;4929701;29;20486;-90
2022/01/21 04:37:22;;;;;;;3.77;1.33;;;1.60;99.90;;;2.14;100.00;99630.28;4926842;29;20467;-92
2022/01/21 04:39:59;;;;;;;5.50;1.70;;;1.50;99.90;;;2.14;100.00;99632.84;4923869;29;20593;-92
2022/01/21 04:48:04;;;;;;;8.73;1.90;;;1.40;99.90;;;2.15;100.00;99634.53;4921633;29;20474;-87
2022/01/21 04:50:40;;;;;;;7.83;3.30;;;1.40;99.90;;;2.17;100.00;99637.81;4929854;29;20468;-92
2022/01/21 04:53:12;;;;;;;10.90;1.83;;;1.40;99.90;;;2.19;100.00;99635.13;4925822;29;20474;-91
2022/01/21 04:55:44;;;;;;;3.77;1.97;;;1.40;99.90;;;2.22;100.00;99638.34;4927645;29;20941;-92
2022/01/21 04:58:15;;;;;;;6.23;1.80;;;1.40;99.90;;;2.21;100.00;99634.13;4925920;29;20506;-91
2022/01/21 05:00:49;;;;;;;6.73;1.93;;;1.40;99.90;;;2.21;100.00;99636.72;4927532;29;20458;-92
2022/01/21 05:03:18;;;;;;;2.97;1.63;;;1.40;99.90;;;2.20;100.00;99644.53;4933108;29;20520;-90
2022/01/21 05:05:48;;;;;;;8.10;2.00;;;1.50;99.90;;;2.19;100.00;99642.88;4927881;29;20471;-93
2022/01/21 05:08:26;;;;;;;6.27;1.87;;;1.30;99.90;;;2.19;100.00;99643.69;4927340;29;20485;-92
2022/01/21 05:11:06;;;;;;;8.87;2.00;;;1.30;99.90;;;2.21;100.00;99647.03;4930547;29;20534;-92
2022/01/21 05:13:40;;;;;;;10.53;1.70;;;1.40;99.90;;;2.20;100.00;99647.94;4932087;29;20913;-93
2022/01/21 05:16:29;;;;;;;9.37;2.00;;;1.40;99.90;;;2.21;100.00;99647.03;4929374;29;20471;-92
2022/01/21 05:19:04;;;;;;;8.90;2.40;;;1.50;99.90;;;2.21;100.00;99646.19;4929193;29;20830;-92
2022/01/21 05:21:36;;;;;;;15.73;2.07;;;1.40;99.90;;;2.21;100.00;99646.19;4929693;29;20490;-92
2022/01/21 05:24:08;;;;;;;6.77;2.77;;;1.40;99.90;;;2.20;100.00;99642.78;4931579;29;20535;-93
2022/01/21 05:26:40;;;;;;;8.03;1.97;;;1.30;99.90;;;2.17;100.00;99650.72;4923701;29;20863;-91
2022/01/21 05:29:12;;;;;;;5.00;2.00;;;1.30;99.90;;;2.17;100.00;99650.72;4922084;29;20462;-92
2022/01/21 05:31:44;;;;;;;2.47;1.47;;;1.30;99.90;;;2.17;100.00;99665.38;4925852;29;20482;-89
2022/01/21 05:34:14;;;;;;;17.90;2.33;;;1.40;99.90;;;2.18;100.00;99659.28;4923895;29;20455;-90
2022/01/21 05:36:44;;;;;;;5.60;1.90;;;1.40;99.90;;;2.18;100.00;99662.72;4926346;29;20866;-90
2022/01/21 05:39:17;;;;;;;2.10;1.57;;;1.40;99.90;;;2.14;100.00;99671.56;4925810;29;20473;-92
2022/01/21 05:41:50;;;;;;;8.40;1.80;;;1.30;99.90;;;2.15;100.00;99670.63;4933780;29;20518;-90
2022/01/21 05:47:10;;;;;;;6.70;1.97;;;1.30;99.90;;;2.14;100.00;99661.22;4928519;29;20420;-91
2022/01/21 05:49:40;;;;;;;6.27;1.70;;;1.30;99.90;;;2.13;100.00;99662.16;4927892;29;20455;-91
2022/01/21 05:52:16;;;;;;;6.00;1.83;;;1.30;99.90;;;2.09;100.00;99663.25;4930647;29;21020;-91
2022/01/21 05:54:48;;;;;;;9.23;2.10;;;1.20;99.90;;;2.07;100.00;99659.94;4929397;29;20466;-91
2022/01/21 05:57:20;;;;;;;4.73;2.00;;;1.30;99.90;;;2.07;100.00;99661.69;4930086;29;20446;-91
2022/01/21 05:59:50;;;;;;;10.77;2.10;;;1.20;99.90;;;2.02;100.00;99656.81;4929679;29;20490;-91
2022/01/21 06:02:20;;;;;;;6.13;2.63;;;1.10;99.90;;;1.99;100.00;99673.31;4928117;29;20466;-91
2022/01/21 06:04:52;;;;;;;4.50;1.80;;;1.10;99.90;;;2.03;100.00;99667.06;4929301;29;20479;-90
2022/01/21 06:07:31;;;;;;;6.90;1.90;;;1.10;99.90;;;2.03;100.00;99658.47;4926557;29;20582;-90
2022/01/21 06:10:02;;;;;;;7.67;2.17;;;1.10;99.90;;;2.04;100.00;99673.03;4926555;29;20490;-91
2022/01/21 06:12:34;;;;;;;7.77;1.87;;;1.10;99.90;;;2.04;100.00;99673.03;4927711;29;20473;-91
2022/01/21 06:15:04;;;;;;;6.13;1.67;;;1.20;99.90;;;2.03;100.00;99673.97;4928344;29;20473;-91
2022/01/21 06:17:34;;;;;;;3.63;2.27;;;1.10;99.90;;;2.03;100.00;99679.13;4927717;29;20453;-91
2022/01/21 06:20:04;;;;;;;6.97;3.13;;;1.10;99.90;;;2.06;100.00;99668.59;4929192;29;20486;-90
2022/01/21 06:22:34;;;;;;;7.70;2.60;;;1.30;99.90;;;2.06;100.00;99684.09;4929842;29;20450;-90
2022/01/21 06:25:06;;;;;;;4.07;2.47;;;1.30;99.90;;;2.06;100.00;99678.91;4927910;29;20458;-90
2022/01/21 06:27:39;;;;;;;11.30;3.10;;;1.20;99.90;;;2.02;100.00;99677.44;4928271;29;20482;-91
2022/01/21 06:30:15;;;;;;;9.30;2.93;;;1.10;99.90;;;2.00;100.00;99682.72;4928241;29;20959;-91
2022/01/21 06:32:47;;;;;;;13.60;3.10;;;1.10;99.90;;;2.00;100.00;99695.63;4928396;29;20485;-91
2022/01/21 06:35:18;;;;;;;7.17;2.87;;;1.10;99.90;;;2.02;100.00;99698.09;4929711;29;20477;-91
2022/01/21 06:37:48;;;;;;;9.67;2.53;;;1.20;99.90;;;2.01;100.00;99691.28;4927945;29;20962;-90
2022/01/21 06:40:20;;;;;;;9.13;2.50;;;1.20;99.90;;;1.92;100.00;99697.81;4931314;29;20831;-90
2022/01/21 06:43:02;;;;;;;14.07;2.40;;;1.00;99.90;;;1.98;100.00;99706.91;4932876;29;20475;-91
2022/01/21 06:45:32;;;;;;;8.33;2.47;;;1.00;99.90;;;1.99;100.00;99716.31;4932904;29;20490;-91
2022/01/21 06:48:03;;;;;;;2.80;2.20;;;1.10;99.90;;;1.92;100.00;99717.63;4932604;29;20500;-90
2022/01/21 06:50:38;;;;;;;11.23;2.87;;;1.00;99.90;;;1.90;100.00;99716.88;4930899;29;20446;-91
2022/01/21 06:53:09;;;;;;;10.73;2.80;;;1.00;99.90;;;1.92;100.00;99717.63;4931467;29;20457;-90
2022/01/21 06:55:38;;;;;;;8.20;3.00;;;1.00;99.90;;;1.94;100.00;99715.78;4930611;29;20555;-90
2022/01/21 06:58:10;;;;;;;7.80;2.90;;;1.10;99.90;;;1.91;100.00;99708.22;4931903;29;20562;-90
2022/01/21 07:00:41;;;;;;;8.20;2.47;;;1.00;99.90;;;1.93;100.00;99714.13;4932957;29;20461;-91
2022/01/21 07:03:12;;;;;;;7.23;2.40;;;1.00;99.90;;;1.95;100.00;99720.84;4930358;29;20455;-91
2022/01/21 07:05:46;;;;;;;5.93;2.40;;;1.00;99.90;;;1.95;100.00;99714.84;4933670;29;20493;-90
2022/01/21 07:08:16;;;;;;;6.63;2.50;;;1.10;99.90;;;1.95;100.00;99717.41;4930474;29;20462;-91
2022/01/21 07:10:47;;;;;;;4.63;2.17;;;1.00;99.90;;;1.97;100.00;99715.59;4930856;29;20463;-90
2022/01/21 07:13:26;;;;;;;10.93;2.43;;;1.10;99.90;;;2.00;100.00;99720.56;4930738;29;20521;-90
2022/01/21 07:15:58;;;;;;;14.07;2.63;;;1.20;99.90;;;2.03;100.00;99726.38;4931962;29;21117;-90
2022/01/21 07:18:28;;;;;;;3.07;2.07;;;1.20;99.90;;;2.02;100.00;99723.88;4930824;29;20467;-90
2022/01/21 07:20:58;;;;;;;7.50;2.37;;;1.20;99.90;;;1.96;100.00;99732.00;4930120;29;20482;-90
2022/01/21 07:23:29;;;;;;;10.67;2.80;;;1.10;99.90;;;1.98;100.00;99719.81;4931968;29;20505;-88
2022/01/21 07:26:00;;;;;;;7.10;2.07;;;1.10;99.90;;;1.97;100.00;99725.91;4930546;29;20797;-89
2022/01/21 07:28:32;;;;;;;4.57;2.40;;;1.10;99.90;;;2.00;100.00;99731.72;4929878;29;20468;-90
2022/01/21 07:31:03;;;;;;;5.03;3.00;;;1.10;99.90;;;2.00;100.00;99728.31;4929688;29;20460;-89
2022/01/21 07:33:33;;;;;;;10.50;3.17;;;1.20;99.90;;;2.01;100.00;99717.88;4928721;29;20467;-89
2022/01/21 07:36:04;;;;;;;8.50;2.67;;;1.10;99.90;;;1.98;100.00;99712.06;4928465;29;20467;-89
2022/01/21 07:38:34;;;;;;;8.17;2.63;;;1.10;99.90;;;1.98;100.00;99725.81;4928891;29;20455;-90
2022/01/21 07:41:06;;;;;;;8.00;2.77;;;1.10;99.90;;;2.03;100.00;99730.69;4928755;29;20462;-90
2022/01/21 07:43:43;;;;;;;5.50;2.37;;;1.20;99.90;;;2.06;100.00;99727.94;4928052;29;20488;-89
2022/01/21 07:46:14;;;;;;;8.50;2.40;;;1.20;99.90;;;2.06;100.00;99735.69;4927820;29;20455;-89
2022/01/21 07:48:44;;;;;;;9.70;2.47;;;1.20;99.90;;;2.03;100.00;99736.69;4927140;29;20477;-89
2022/01/21 07:51:24;;;;;;;10.13;2.27;;;1.20;99.90;;;2.08;100.00;99730.44;4928956;29;21035;-90
2022/01/21 07:53:54;;;;;;;5.23;2.13;;;1.10;99.90;;;2.06;100.00;99738.25;4928477;29;20464;-89
2022/01/21 07:56:26;;;;;;;8.63;3.97;;;1.20;99.90;;;2.08;100.00;99733.03;4930238;29;20478;-88
2022/01/21 07:58:59;;;;;;;7.63;2.50;;;1.30;99.90;;;2.07;100.00;99732.19;4927551;29;20498;-90
2022/01/21 08:01:30;;;;;;;9.50;2.53;;;1.30;99.90;;;2.11;100.00;99743.16;4930261;29;20462;-89
2022/01/21 08:04:01;;;;;;;4.67;2.50;;;1.20;99.90;;;2.13;100.00;99747.28;4929376;29;20475;-89
2022/01/21 08:06:31;;;;;;;7.73;2.20;;;1.30;99.90;;;2.19;100.00;99751.22;4928985;29;20466;-90
2022/01/21 08:09:02;;;;;;;4.03;1.80;;;1.40;99.90;;;2.23;100.00;99743.22;4929084;29;21056;-90
2022/01/21 08:11:34;;;;;;;3.00;1.80;;;1.40;99.90;;;2.26;100.00;99740.47;4926403;29;20967;-89
2022/01/21 08:14:05;;;;;;;8.27;2.50;;;1.50;99.90;;;2.30;100.00;99741.94;4930975;29;20490;-89
2022/01/21 08:16:43;;;;;;;5.43;2.10;;;1.50;99.90;;;2.29;100.00;99737.69;4929798;29;20466;-89
2022/01/21 08:19:14;;;;;;;14.40;2.80;;;1.50;99.90;;;2.33;100.00;99740.91;4931099;29;20447;-90
2022/01/21 08:21:43;;;;;;;7.50;2.00;;;1.50;99.90;;;2.31;100.00;99746.19;4928586;29;20507;-89
2022/01/21 08:24:14;;;;;;;6.43;2.30;;;1.50;99.90;;;2.31;100.00;99741.03;4929726;29;20509;-90
2022/01/21 08:26:45;;;;;;;3.03;1.70;;;1.50;99.90;;;2.37;100.00;99737.22;4930459;29;20541;-91
2022/01/21 08:29:17;;;;;;;8.07;1.90;;;1.70;99.90;;;2.39;100.00;99736.22;4930347;29;20508;-89
2022/01/21 08:31:48;;;;;;;5.20;1.90;;;1.60;99.90;;;2.46;100.00;99749.59;4930141;29;20462;-89
2022/01/21 08:34:22;;;;;;;7.80;2.43;;;1.70;99.90;;;2.51;100.00;99758.69;4930598;29;20953;-89
2022/01/21 08:36:54;;;;;;;3.53;1.43;;;1.70;99.90;;;2.57;100.00;99767.00;4930417;29;21013;-90
2022/01/21 08:39:24;;;;;;;6.40;1.80;;;1.80;99.90;;;2.59;100.00;99765.16;4930103;29;20506;-90
2022/01/21 08:41:55;;;;;;;8.10;2.23;;;1.90;99.90;;;2.63;100.00;99756.28;4931151;29;20452;-89
2022/01/21 08:44:27;;;;;;;3.37;1.67;;;2.00;99.90;;;2.66;100.00;99750.94;4930343;29;20506;-89
2022/01/21 08:46:58;;;;;;;5.20;2.07;;;1.90;99.90;;;2.69;100.00;99753.31;4928969;29;20451;-89
2022/01/21 08:49:41;;;;;;;5.40;2.43;;;2.00;99.90;;;2.72;100.00;99759.13;4935434;29;20468;-89
2022/01/21 08:52:18;;;;;;;3.40;1.63;;;2.10;99.90;;;2.77;100.00;99753.69;4935921;29;20469;-88
2022/01/21 08:54:49;;;;;;;3.50;1.53;;;2.10;99.90;;;2.80;100.00;99758.66;4932247;29;20489;-88
2022/01/21 08:57:20;;;;;;;11.80;1.93;;;2.20;99.90;;;2.80;100.00;99766.41;4929596;29;20457;-89
2022/01/21 08:59:52;;;;;;;5.77;1.70;;;2.20;99.90;;;2.81;100.00;99750.00;4930950;29;20460;-90
2022/01/21 09:02:22;;;;;;;6.07;1.70;;;2.20;99.90;;;2.85;100.00;99767.75;4931085;29;20448;-89
2022/01/21 09:04:51;;;;;;;13.63;2.10;;;2.20;99.90;;;2.84;100.00;99766.13;4928669;29;20496;-89
2022/01/21 09:07:22;;;;;;;3.17;1.87;;;2.20;99.90;;;2.91;100.00;99761.41;4930746;29;20452;-89
2022/01/21 09:10:01;;;;;;;6.40;2.03;;;2.30;99.90;;;2.97;100.00;99756.66;4929318;29;20937;-89
2022/01/21 09:12:33;;;;;;;5.43;1.83;;;2.30;99.90;;;3.00;100.00;99763.38;4932098;29;20477;-90
2022/01/21 09:15:08;;;;;;;3.47;1.67;;;2.30;99.90;;;2.94;100.00;99767.22;4932845;29;20452;-89
2022/01/21 09:17:39;;;;;;;5.03;1.73;;;2.30;99.90;;;2.93;100.00;99755.19;4931156;29;20566;-89
2022/01/21 09:20:11;;;;;;;7.23;2.33;;;2.30;99.90;;;2.95;100.00;99753.34;4935402;29;20543;-90
2022/01/21 09:22:43;;;;;;;9.80;2.60;;;2.40;99.90;;;2.95;100.00;99752.53;4929434;29;20496;-89
2022/01/21 09:25:13;;;;;;;10.53;2.33;;;2.30;99.90;;;2.93;100.00;99762.94;4927294;29;20498;-89
2022/01/21 09:27:44;;;;;;;7.73;2.20;;;2.40;99.90;;;2.91;100.00;99761.41;4929574;29;20905;-89
2022/01/21 09:30:17;;;;;;;17.27;2.40;;;2.40;99.90;;;2.95;100.00;99774.00;4927347;29;20469;-89
2022/01/21 09:32:47;;;;;;;6.43;3.43;;;2.30;99.90;;;2.93;100.00;99777.63;4926044;29;20448;-89
2022/01/21 09:35:17;;;;;;;11.23;2.97;;;2.40;99.90;;;2.94;100.00;99771.53;4927168;29;20472;-88
2022/01/21 09:37:47;;;;;;;8.53;2.10;;;2.40;99.90;;;2.90;100.00;99776.06;4928066;29;20941;-89
2022/01/21 09:40:47;;;;;;;3.60;1.60;;;2.50;99.90;;;2.94;100.00;99771.53;4926919;29;20538;-89
2022/01/21 09:43:19;;;;;;;7.23;1.60;;;2.40;99.90;;;2.94;100.00;99767.22;4925938;29;20458;-89
2022/01/21 09:45:59;;;;;;;6.47;1.90;;;2.40;99.90;;;2.93;100.00;99773.28;4925707;29;20899;-89
2022/01/21 09:48:35;;;;;;;5.63;1.80;;;2.30;99.90;;;2.92;100.00;99768.19;4927484;29;20932;-89
2022/01/21 09:51:06;;;;;;;7.63;2.07;;;2.30;99.90;;;2.87;100.00;99765.09;4927308;29;20461;-89
2022/01/21 09:53:37;;;;;;;7.20;1.67;;;2.30;99.90;;;2.87;100.00;99765.94;4926315;29;20524;-89
2022/01/21 09:56:08;;;;;;;5.20;1.87;;;2.40;99.90;;;2.94;100.00;99776.69;4927288;29;20523;-89
2022/01/21 09:58:45;;;;;;;4.07;1.63;;;2.40;99.90;;;2.96;100.00;99774.84;4926171;29;20491;-89
2022/01/21 10:01:20;;;;;;;8.47;2.00;;;2.40;99.90;;;2.97;100.00;99785.09;4909660;29;20518;-89
2022/01/21 10:03:53;;;;;;;6.63;2.30;;;2.40;99.90;;;2.95;100.00;99778.38;4927119;29;20925;-90
2022/01/21 10:06:29;;;;;;;4.17;1.80;;;2.40;99.90;;;2.99;100.00;99769.47;4926429;29;20495;-90
2022/01/21 10:09:00;;;;;;;6.30;1.97;;;2.40;99.90;;;3.07;100.00;99774.16;4926901;29;20456;-89
2022/01/21 10:11:31;;;;;;;2.73;1.23;;;2.50;99.90;;;3.01;100.00;99772.81;4927315;29;20467;-90
2022/01/21 10:14:00;;;;;;;1.67;1.50;;;2.40;99.90;;;3.04;100.00;99772.63;4930632;29;20569;-90
2022/01/21 10:16:33;;;;;;;9.67;2.07;;;2.50;99.90;;;3.13;100.00;99769.44;4933268;29;20492;-89
2022/01/21 10:19:07;;;;;;;6.07;1.90;;;2.50;99.90;;;3.13;100.00;99764.25;4931674;29;20470;-90
2022/01/21 10:21:42;;;;;;;4.10;2.10;;;2.50;99.90;;;3.17;100.00;99762.31;4932191;29;20451;-89
2022/01/21 10:24:16;;;;;;;3.23;1.73;;;2.60;99.90;;;3.15;100.00;99764.19;4932055;29;20460;-90
2022/01/21 10:26:52;;;;;;;3.60;1.70;;;2.60;99.90;;;3.20;100.00;99773.28;4930740;29;20620;-89
2022/01/21 10:29:24;;;;;;;4.83;1.50;;;2.70;99.90;;;3.19;100.00;99770.81;4932336;29;20569;-89
2022/01/21 10:32:00;;;;;;;4.50;1.73;;;2.60;99.90;;;3.22;100.00;99771.44;4931290;29;20457;-90
2022/01/21 10:34:38;;;;;;;7.40;1.83;;;2.60;99.90;;;3.26;100.00;99766.91;4931592;29;20524;-89
2022/01/21 10:37:25;;;;;;;1.73;1.63;;;2.70;99.90;;;3.35;100.00;99766.31;4934098;29;20855;-90
2022/01/21 10:40:02;;;;;;;5.57;1.70;;;2.80;99.90;;;3.32;100.00;99769.09;4932187;29;20498;-90
2022/01/21 10:42:33;;;;;;;4.40;1.70;;;2.70;99.90;;;3.34;100.00;99765.47;4931315;29;20492;-90
2022/01/21 10:45:05;;;;;;;5.20;1.60;;;2.70;99.90;;;3.37;100.00;99759.28;4931671;29;21117;-89
2022/01/21 10:47:42;;;;;;;3.70;1.53;;;2.80;99.90;;;3.39;100.00;99763.44;4929953;29;20457;-90
2022/01/21 10:50:15;;;;;;;5.07;2.03;;;2.90;99.90;;;3.45;100.00;99767.38;4930985;29;20484;-90
2022/01/21 10:52:50;;;;;;;5.73;2.13;;;2.90;99.90;;;3.49;100.00;99759.31;4932234;29;20462;-90
2022/01/21 10:55:32;;;;;;;4.00;1.60;;;3.00;99.90;;;3.47;100.00;99760.34;4930235;29;20465;-90
2022/01/21 10:58:08;;;;;;;6.13;2.00;;;3.00;99.90;;;3.52;100.00;99753.94;4931954;29;20459;-90
2022/01/21 11:00:57;;;;;;;3.73;1.67;;;3.10;99.90;;;3.54;100.00;99752.06;4931593;29;20480;-89
2022/01/21 11:03:31;;;;;;;6.27;2.10;;;3.10;99.90;;;3.58;100.00;99749.28;4930997;29;20485;-90
2022/01/21 11:06:14;;;;;;;12.07;2.40;;;3.10;99.90;;;3.58;100.00;99757.03;4929582;29;21157;-90
2022/01/21 11:08:43;;;;;;;4.57;2.20;;;3.10;99.90;;;3.54;100.00;99762.41;4932327;29;20473;-89
2022/01/21 11:11:22;;;;;;;2.70;2.20;;;3.10;99.90;;;3.62;100.00;99768.84;4931630;29;20494;-90
2022/01/21 11:13:52;;;;;;;7.03;2.17;;;3.10;99.90;;;3.60;100.00;99762.97;4932116;29;20500;-90
2022/01/21 11:16:25;;;;;;;2.93;1.80;;;3.10;99.90;;;3.63;100.00;99771.34;4929910;29;20446;-89
2022/01/21 11:19:28;;;;;;;9.17;1.83;;;3.10;99.90;;;3.59;100.00;99774.22;4930196;29;20504;-90
2022/01/21 11:22:04;;;;;;;12.00;2.87;;;3.00;99.90;;;3.59;100.00;99769.88;4933101;29;20946;-89
2022/01/21 11:24:34;;;;;;;6.90;2.23;;;3.00;99.90;;;3.54;100.00;99775.34;4932875;29;20460;-90
2022/01/21 11:27:10;;;;;;;16.83;2.33;;;2.90;99.90;;;3.61;100.00;99767.22;4929222;29;21072;-89
2022/01/21 11:29:40;;;;;;;3.77;1.60;;;3.00;99.90;;;3.58;100.00;99764.81;4928390;29;20959;-91
2022/01/21 11:32:11;;;;;;;4.80;1.70;;;3.00;99.90;;;3.60;100.00;99768.97;4927847;29;20466;-89